createdAt,value
2019-05-01T00:00:00.592Z,7.00
2019-05-01T00:02:40.618Z,7.00
2019-05-01T00:05:17.328Z,7.00
2019-05-01T00:07:47.115Z,7.00
2019-05-01T00:10:17.158Z,6.90
2019-05-01T00:12:46.539Z,6.90
2019-05-01T00:15:18.193Z,6.90
2019-05-01T00:17:50.035Z,6.90
2019-05-01T00:20:19.499Z,6.80
2019-05-01T00:22:52.710Z,6.80
2019-05-01T00:25:21.990Z,6.80
2019-05-01T00:27:51.033Z,6.80
2019-05-01T00:30:29.739Z,6.80
2019-05-01T00:32:55.436Z,6.70
2019-05-01T00:35:24.716Z,6.70
2019-05-01T00:37:53.883Z,6.70
2019-05-01T00:40:23.495Z,6.70
2019-05-01T00:42:52.690Z,6.60
2019-05-01T00:45:22.023Z,6.50
2019-05-01T00:47:51.226Z,6.40
2019-05-01T00:50:20.762Z,6.40
2019-05-01T00:52:50.332Z,6.30
2019-05-01T00:55:39.612Z,6.20
2019-05-01T00:58:19.566Z,6.10
2019-05-01T01:00:53.531Z,6.00
2019-05-01T01:03:28.887Z,6.00
2019-05-01T01:05:58.071Z,5.90
2019-05-01T01:08:30.145Z,5.90
2019-05-01T01:11:01.795Z,5.90
2019-05-01T01:13:32.300Z,5.80
2019-05-01T01:16:02.615Z,5.70
2019-05-01T01:18:34.815Z,5.70
2019-05-01T01:21:04.237Z,5.60
2019-05-01T01:23:34.211Z,5.60
2019-05-01T01:26:03.491Z,5.60
2019-05-01T01:28:32.865Z,5.50
2019-05-01T01:31:02.123Z,5.40
2019-05-01T01:33:31.179Z,5.40
2019-05-01T01:36:00.856Z,5.40
2019-05-01T01:38:30.763Z,5.30
2019-05-01T01:41:00.292Z,5.30
2019-05-01T01:43:37.821Z,5.20
2019-05-01T01:46:09.143Z,5.20
2019-05-01T01:48:39.081Z,5.10
2019-05-01T01:51:08.258Z,5.10
2019-05-01T01:53:37.970Z,5.10
2019-05-01T03:32:18.008Z,9.60
2019-05-01T03:34:38.489Z,9.60
2019-05-01T03:37:08.172Z,10.60
2019-05-01T03:39:38.010Z,11.70
2019-05-01T03:42:08.558Z,12.70
2019-05-01T03:44:38.101Z,13.60
2019-05-01T03:47:07.634Z,13.70
2019-05-01T03:49:37.065Z,14.20
2019-05-01T03:52:06.718Z,14.00
2019-05-01T03:54:36.103Z,12.70
2019-05-01T03:57:05.519Z,12.10
2019-05-01T03:59:34.895Z,11.60
2019-05-01T04:02:31.620Z,11.60
2019-05-01T04:04:46.011Z,11.80
2019-05-01T04:07:16.156Z,11.70
2019-05-01T04:09:47.417Z,11.60
2019-05-01T04:12:17.067Z,12.10
2019-05-01T04:14:46.778Z,12.20
2019-05-01T04:17:18.029Z,11.90
2019-05-01T04:19:48.933Z,12.30
2019-05-01T04:22:20.923Z,12.20
2019-05-01T04:24:50.966Z,12.50
2019-05-01T04:27:21.871Z,13.00
2019-05-01T04:29:59.085Z,13.60
2019-05-01T04:32:30.698Z,13.50
2019-05-01T04:35:20.296Z,13.90
2019-05-01T04:37:50.372Z,13.80
2019-05-01T04:40:20.330Z,13.70
2019-05-01T04:42:50.282Z,13.90
2019-05-01T04:45:20.873Z,14.00
2019-05-01T04:47:51.094Z,14.50
2019-05-01T04:50:20.882Z,14.50
2019-05-01T04:52:53.781Z,14.60
2019-05-01T04:55:23.766Z,14.70
2019-05-01T04:57:54.046Z,15.00
2019-05-01T05:00:23.650Z,15.50
2019-05-01T05:03:04.464Z,15.90
2019-05-01T05:05:25.711Z,15.90
2019-05-01T05:07:55.761Z,15.90
2019-05-01T05:10:29.742Z,15.70
2019-05-01T05:13:07.428Z,15.50
2019-05-01T05:15:44.490Z,16.00
2019-05-01T05:18:14.530Z,16.10
2019-05-01T05:20:45.008Z,16.30
2019-05-01T05:23:14.409Z,16.60
2019-05-01T05:25:44.105Z,17.60
2019-05-01T05:28:14.496Z,19.30
2019-05-01T05:30:46.467Z,20.70
2019-05-01T05:33:19.013Z,22.00
2019-05-01T05:35:50.679Z,22.90
2019-05-01T05:38:26.295Z,23.50
2019-05-01T05:40:56.331Z,24.60
2019-05-01T05:43:25.688Z,25.40
2019-05-01T05:45:55.737Z,25.60
2019-05-01T05:48:29.125Z,25.50
2019-05-01T05:51:10.959Z,25.80
2019-05-01T05:53:56.445Z,26.20
2019-05-01T05:56:30.524Z,26.80
2019-05-01T05:59:07.118Z,25.80
2019-05-01T06:01:39.491Z,25.10
2019-05-01T06:04:24.768Z,24.40
2019-05-01T06:07:01.436Z,24.30
2019-05-01T06:09:37.930Z,23.70
2019-05-01T06:12:10.165Z,24.10
2019-05-01T06:14:43.116Z,24.50
2019-05-01T06:17:14.164Z,25.10
2019-05-01T06:19:45.875Z,25.60
2019-05-01T06:22:18.926Z,24.70
2019-05-01T06:24:56.250Z,24.10
2019-05-01T06:27:25.842Z,24.90
2019-05-01T06:29:56.225Z,24.90
2019-05-01T06:32:33.476Z,25.70
2019-05-01T06:35:03.163Z,25.80
2019-05-01T06:38:04.199Z,25.70
2019-05-01T06:40:40.074Z,26.30
2019-05-01T06:43:13.398Z,26.50
2019-05-01T06:45:51.700Z,27.40
2019-05-01T06:48:29.045Z,27.70
2019-05-01T06:51:00.409Z,27.50
2019-05-01T06:53:30.818Z,27.50
2019-05-01T06:56:00.479Z,27.20
2019-05-01T06:58:32.938Z,27.40
2019-05-01T07:01:02.222Z,27.70
2019-05-01T07:03:31.437Z,28.30
2019-05-01T07:06:13.636Z,29.60
2019-05-01T07:08:34.213Z,29.70
2019-05-01T07:11:10.904Z,29.60
2019-05-01T07:13:41.503Z,29.00
2019-05-01T07:16:11.242Z,28.50
2019-05-01T07:18:42.892Z,28.30
2019-05-01T07:21:12.434Z,27.80
2019-05-01T07:23:41.877Z,28.00
2019-05-01T07:26:13.720Z,28.40
2019-05-01T07:28:44.605Z,29.60
2019-05-01T07:31:18.994Z,28.80
2019-05-01T07:33:51.253Z,29.60
2019-05-01T07:36:19.731Z,29.90
2019-05-01T07:38:49.846Z,29.60
2019-05-01T07:41:22.434Z,29.20
2019-05-01T07:44:13.146Z,28.00
2019-05-01T07:46:56.010Z,27.80
2019-05-01T07:49:29.992Z,28.20
2019-05-01T07:52:01.720Z,28.20
2019-05-01T07:54:30.451Z,28.20
2019-05-01T07:57:03.263Z,27.80
2019-05-01T07:59:34.436Z,28.60
2019-05-01T08:02:05.385Z,28.80
2019-05-01T08:04:36.542Z,29.00
2019-05-01T08:07:06.129Z,29.70
2019-05-01T08:09:36.438Z,28.50
2019-05-01T08:12:09.380Z,27.00
2019-05-01T08:14:38.672Z,27.30
2019-05-01T08:17:08.283Z,27.50
2019-05-01T08:19:40.606Z,26.90
2019-05-01T08:22:11.969Z,26.80
2019-05-01T08:24:42.699Z,27.00
2019-05-01T08:27:15.594Z,26.50
2019-05-01T08:30:02.278Z,26.10
2019-05-01T08:32:38.954Z,26.50
2019-05-01T08:35:10.199Z,25.70
2019-05-01T08:37:39.632Z,26.10
2019-05-01T08:40:09.481Z,26.10
2019-05-01T08:42:42.634Z,26.00
2019-05-01T08:45:16.714Z,26.00
2019-05-01T08:47:56.723Z,26.40
2019-05-01T08:50:28.663Z,27.30
2019-05-01T08:53:01.235Z,27.40
2019-05-01T08:55:33.320Z,26.50
2019-05-01T08:58:03.536Z,25.90
2019-05-01T09:00:36.030Z,25.90
2019-05-01T09:03:08.658Z,25.60
2019-05-01T09:05:37.094Z,24.10
2019-05-01T09:08:07.235Z,23.20
2019-05-01T09:10:38.129Z,22.30
2019-05-01T09:13:07.488Z,21.70
2019-05-01T09:15:39.150Z,21.10
2019-05-01T09:18:08.218Z,20.80
2019-05-01T09:20:40.280Z,20.30
2019-05-01T09:23:14.464Z,19.40
2019-05-01T09:25:42.682Z,18.70
2019-05-01T09:28:13.502Z,18.50
2019-05-01T09:30:50.789Z,18.40
2019-05-01T09:33:19.885Z,18.30
2019-05-01T09:35:49.089Z,18.20
2019-05-01T09:38:18.288Z,18.20
2019-05-01T09:40:47.481Z,18.40
2019-05-01T09:43:19.617Z,18.60
2019-05-01T09:45:48.841Z,18.30
2019-05-01T09:48:17.933Z,18.30
2019-05-01T09:50:55.841Z,18.20
2019-05-01T09:53:29.653Z,17.70
2019-05-01T09:56:10.615Z,17.50
2019-05-01T09:58:39.811Z,17.70
2019-05-01T10:01:09.213Z,17.60
2019-05-01T10:03:38.412Z,17.50
2019-05-01T10:06:12.825Z,17.70
2019-05-01T10:08:42.037Z,17.80
2019-05-01T10:11:11.121Z,17.70
2019-05-01T10:13:40.219Z,17.50
2019-05-01T10:16:17.784Z,17.40
2019-05-01T10:18:45.575Z,17.30
2019-05-01T10:21:14.772Z,17.30
2019-05-01T10:23:47.142Z,17.40
2019-05-01T10:26:19.033Z,17.40
2019-05-01T10:28:50.161Z,17.50
2019-05-01T10:31:21.492Z,17.40
2019-05-01T10:34:02.783Z,17.50
2019-05-01T10:36:36.376Z,17.50
2019-05-01T10:39:08.028Z,17.40
2019-05-01T10:41:41.202Z,17.30
2019-05-01T10:44:07.794Z,17.50
2019-05-01T10:46:36.857Z,17.70
2019-05-01T10:49:06.049Z,17.80
2019-05-01T10:51:35.145Z,17.80
2019-05-01T10:54:06.555Z,17.70
2019-05-01T10:56:36.732Z,17.80
2019-05-01T10:59:05.807Z,17.90
2019-05-01T11:01:43.604Z,18.10
2019-05-01T11:04:13.724Z,18.10
2019-05-01T11:06:43.028Z,18.20
2019-05-01T11:09:12.124Z,18.20
2019-05-01T11:11:43.581Z,17.60
2019-05-01T11:14:12.671Z,17.50
2019-05-01T11:16:41.685Z,17.40
2019-05-01T11:19:13.206Z,17.40
2019-05-01T11:21:42.304Z,17.50
2019-05-01T11:24:12.522Z,17.80
2019-05-01T11:26:41.619Z,17.90
2019-05-01T11:29:14.241Z,18.00
2019-05-01T11:31:47.692Z,18.00
2019-05-01T11:34:34.824Z,18.10
2019-05-01T11:37:21.722Z,18.30
2019-05-01T11:40:01.266Z,18.50
2019-05-01T11:42:30.458Z,18.50
2019-05-01T11:44:59.552Z,18.50
2019-05-01T11:47:28.749Z,18.70
2019-05-01T11:50:03.189Z,18.80
2019-05-01T11:52:35.136Z,18.80
2019-05-01T11:55:05.044Z,18.80
2019-05-01T11:57:34.140Z,18.90
2019-05-01T12:00:05.805Z,18.80
2019-05-01T12:02:34.890Z,18.80
2019-05-01T12:05:04.860Z,18.90
2019-05-01T12:07:33.921Z,18.90
2019-05-01T12:10:03.289Z,18.90
2019-05-01T12:12:35.062Z,18.80
2019-05-01T12:15:07.642Z,18.80
2019-05-01T12:17:39.051Z,18.70
2019-05-01T12:20:09.581Z,18.60
2019-05-01T12:22:38.606Z,18.60
2019-05-01T12:25:09.032Z,18.70
2019-05-01T12:27:38.132Z,18.70
2019-05-01T12:30:10.533Z,18.70
2019-05-01T12:32:39.592Z,18.60
2019-05-01T12:35:09.115Z,18.50
2019-05-01T12:37:44.234Z,18.50
2019-05-01T12:40:15.805Z,18.60
2019-05-01T12:42:45.819Z,18.70
2019-05-01T12:45:18.080Z,18.70
2019-05-01T12:47:52.289Z,18.70
2019-05-01T12:50:21.487Z,18.70
2019-05-01T12:53:01.661Z,18.70
2019-05-01T12:55:51.283Z,18.70
2019-05-01T12:58:20.445Z,18.70
2019-05-01T13:00:56.779Z,18.70
2019-05-01T13:03:25.875Z,18.80
2019-05-01T13:05:54.961Z,18.70
2019-05-01T13:08:25.084Z,18.80
2019-05-01T13:10:54.481Z,18.80
2019-05-01T13:13:23.595Z,18.70
2019-05-01T13:15:52.778Z,18.60
2019-05-01T13:18:22.905Z,18.60
2019-05-01T13:20:57.006Z,18.60
2019-05-01T13:23:30.294Z,18.50
2019-05-01T13:25:58.794Z,18.60
2019-05-01T13:28:38.114Z,18.60
2019-05-01T13:31:11.822Z,18.60
2019-05-01T13:33:40.929Z,18.50
2019-05-01T13:36:13.556Z,18.50
2019-05-01T13:38:45.160Z,18.60
2019-05-01T13:41:14.240Z,18.70
2019-05-01T13:43:43.347Z,18.80
2019-05-01T13:46:14.464Z,18.70
2019-05-01T13:48:43.674Z,18.80
2019-05-01T13:51:12.773Z,18.70
2019-05-01T13:53:41.861Z,18.60
2019-05-01T13:56:11.469Z,18.80
2019-05-01T13:58:40.665Z,19.00
2019-05-01T14:01:09.707Z,19.20
2019-05-01T14:03:38.854Z,19.40
2019-05-01T14:06:07.953Z,19.60
2019-05-01T14:08:41.410Z,19.70
2019-05-01T14:11:14.133Z,19.90
2019-05-01T14:13:43.323Z,19.90
2019-05-01T14:16:16.106Z,19.80
2019-05-01T14:18:45.205Z,19.60
2019-05-01T14:21:33.447Z,19.70
2019-05-01T14:24:21.996Z,19.70
2019-05-01T14:26:51.093Z,19.90
2019-05-01T14:29:20.189Z,20.20
2019-05-01T14:31:49.285Z,20.50
2019-05-01T14:34:18.315Z,20.70
2019-05-01T14:36:47.475Z,20.90
2019-05-01T14:39:16.667Z,20.90
2019-05-01T14:41:46.621Z,21.00
2019-05-01T14:44:15.785Z,20.80
2019-05-01T14:46:47.383Z,20.70
2019-05-01T14:49:17.368Z,20.60
2019-05-01T14:51:46.458Z,20.50
2019-05-01T14:54:16.559Z,20.30
2019-05-01T14:56:45.653Z,20.00
2019-05-01T14:59:14.907Z,19.80
2019-05-01T17:03:45.712Z,17.40
2019-05-01T17:06:27.149Z,17.30
2019-05-01T17:09:21.861Z,17.10
2019-05-01T17:12:02.650Z,16.90
2019-05-01T17:14:32.674Z,16.60
2019-05-01T17:17:02.794Z,16.30
2019-05-01T17:20:02.732Z,16.10
2019-05-01T17:22:29.719Z,15.90
2019-05-01T17:25:20.606Z,15.70
2019-05-01T17:27:49.739Z,15.50
2019-05-01T17:30:25.983Z,15.30
2019-05-01T17:32:55.114Z,15.10
2019-05-01T17:35:24.276Z,15.00
2019-05-01T17:37:54.504Z,14.80
2019-05-01T17:40:23.693Z,14.70
2019-05-01T17:42:52.884Z,14.50
2019-05-01T17:45:29.788Z,14.40
2019-05-01T17:48:03.571Z,14.30
2019-05-01T17:50:32.670Z,14.20
2019-05-01T17:53:02.999Z,14.00
2019-05-01T17:55:34.005Z,13.80
2019-05-01T17:58:02.718Z,13.70
2019-05-01T18:00:36.616Z,13.50
2019-05-01T18:03:24.056Z,13.40
2019-05-01T18:06:01.426Z,13.30
2019-05-01T18:08:32.166Z,13.20
2019-05-01T18:11:02.283Z,13.10
2019-05-01T18:13:33.833Z,12.90
2019-05-01T18:16:03.035Z,12.80
2019-05-01T18:18:32.745Z,12.70
2019-05-01T18:21:06.036Z,12.60
2019-05-01T18:23:53.159Z,12.50
2019-05-01T18:26:26.756Z,12.40
2019-05-01T18:29:00.801Z,12.30
2019-05-01T18:31:31.901Z,12.20
2019-05-01T18:34:02.606Z,12.10
2019-05-01T18:36:38.291Z,12.00
2019-05-01T18:39:27.116Z,11.90
2019-05-01T18:42:03.716Z,11.80
2019-05-01T18:44:32.966Z,11.70
2019-05-01T18:47:02.315Z,11.60
2019-05-01T18:49:31.440Z,11.50
2019-05-01T18:52:00.608Z,11.50
2019-05-01T18:54:35.028Z,11.40
2019-05-01T18:57:05.556Z,11.40
2019-05-01T18:59:35.148Z,11.30
2019-05-01T19:02:04.175Z,11.30
2019-05-01T19:04:34.302Z,11.20
2019-05-01T19:07:07.871Z,11.20
2019-05-01T19:09:40.058Z,11.20
2019-05-01T19:12:12.030Z,11.10
2019-05-01T19:14:41.205Z,11.10
2019-05-01T19:17:10.448Z,11.10
2019-05-01T19:19:39.707Z,11.00
2019-05-01T19:22:09.564Z,11.00
2019-05-01T19:24:42.649Z,10.90
2019-05-01T19:27:14.189Z,10.90
2019-05-01T19:29:44.854Z,10.80
2019-05-01T19:32:19.004Z,10.80
2019-05-01T19:34:48.452Z,10.70
2019-05-01T19:37:22.066Z,10.70
2019-05-01T19:39:53.713Z,10.70
2019-05-01T19:42:22.064Z,10.60
2019-05-01T19:44:56.230Z,10.60
2019-05-01T19:47:22.596Z,10.50
2019-05-01T19:49:54.338Z,10.50
2019-05-01T19:52:24.744Z,10.40
2019-05-01T19:54:53.849Z,10.40
2019-05-01T19:57:23.059Z,10.40
2019-05-01T19:59:52.141Z,10.40
2019-05-01T20:02:22.028Z,10.30
2019-05-01T20:04:53.983Z,10.30
2019-05-01T20:07:23.115Z,10.20
2019-05-01T20:09:56.950Z,10.20
2019-05-01T20:12:24.171Z,10.10
2019-05-01T20:14:53.578Z,10.00
2019-05-01T20:17:22.774Z,10.00
2019-05-01T20:19:53.545Z,9.90
2019-05-01T20:22:26.010Z,9.90
2019-05-01T20:24:55.172Z,9.90
2019-05-01T20:27:30.716Z,9.80
2019-05-01T20:30:03.878Z,9.80
2019-05-01T20:32:38.564Z,9.70
2019-05-01T20:35:08.229Z,9.70
2019-05-01T20:37:39.856Z,9.70
2019-05-01T20:40:12.599Z,9.60
2019-05-01T20:42:44.971Z,9.60
2019-05-01T20:45:18.213Z,9.50
2019-05-01T20:47:50.412Z,9.50
2019-05-01T20:50:21.733Z,9.50
2019-05-01T20:52:59.355Z,9.40
2019-05-01T20:55:29.901Z,9.40
2019-05-01T20:58:23.559Z,9.30
2019-05-01T21:00:56.022Z,9.30
2019-05-01T21:03:27.182Z,9.20
2019-05-01T21:06:03.001Z,9.10
2019-05-01T21:08:39.276Z,9.10
2019-05-01T21:11:13.065Z,9.10
2019-05-01T21:13:42.428Z,9.00
2019-05-01T21:16:13.164Z,9.00
2019-05-01T21:18:44.746Z,9.00
2019-05-01T21:21:16.893Z,9.00
2019-05-01T21:23:50.927Z,8.90
2019-05-01T21:26:18.102Z,8.90
2019-05-01T21:28:47.192Z,8.90
2019-05-01T21:31:20.133Z,8.80
2019-05-01T21:33:50.607Z,8.80
2019-05-01T21:36:22.787Z,8.80
2019-05-01T21:38:54.953Z,8.80
2019-05-01T21:41:24.241Z,8.80
2019-05-01T21:43:53.434Z,8.80
2019-05-01T21:46:22.797Z,8.80
2019-05-01T21:48:53.512Z,8.80
2019-05-01T21:51:22.804Z,8.80
2019-05-01T21:53:52.926Z,8.80
2019-05-01T21:56:24.760Z,8.70
2019-05-01T21:58:55.020Z,8.70
2019-05-01T22:01:30.158Z,8.80
2019-05-01T22:03:59.819Z,8.70
2019-05-01T22:06:29.011Z,8.70
2019-05-01T22:08:58.313Z,8.70
2019-05-01T22:11:27.554Z,8.70
2019-05-01T22:14:00.181Z,8.70
2019-05-01T22:16:30.259Z,8.70
2019-05-01T22:19:00.850Z,8.70
2019-05-01T22:21:43.751Z,8.70
2019-05-01T22:24:36.092Z,8.70
2019-05-01T22:27:22.053Z,8.70
2019-05-01T22:29:57.260Z,8.70
2019-05-01T22:32:36.858Z,8.70
2019-05-01T22:35:19.584Z,8.70
2019-05-01T22:37:48.772Z,8.80
2019-05-01T22:40:20.962Z,8.80
2019-05-01T22:42:51.644Z,8.80
2019-05-01T22:45:27.591Z,8.90
2019-05-01T22:47:56.823Z,8.90
2019-05-01T22:50:25.919Z,8.90
2019-05-01T22:52:59.135Z,9.00
2019-05-01T22:55:28.220Z,9.00
2019-05-01T22:57:57.297Z,9.00
2019-05-01T23:00:46.713Z,9.00
2019-05-01T23:03:40.623Z,9.00
2019-05-01T23:06:07.691Z,9.00
2019-05-01T23:08:36.819Z,9.00
2019-05-01T23:11:18.513Z,9.00
2019-05-01T23:13:36.926Z,9.00
2019-05-01T23:16:07.877Z,9.00
2019-05-01T23:18:36.957Z,9.00
2019-05-01T23:21:09.983Z,9.00
2019-05-01T23:23:37.807Z,9.00
2019-05-01T23:26:07.049Z,9.00
2019-05-01T23:28:39.863Z,9.10
2019-05-01T23:31:06.843Z,9.10
2019-05-01T23:33:38.496Z,9.20
2019-05-01T23:36:07.616Z,9.20
2019-05-01T23:38:36.678Z,9.20
2019-05-01T23:41:10.808Z,9.20
2019-05-01T23:43:44.902Z,9.20
2019-05-01T23:46:23.632Z,9.20
2019-05-01T23:48:54.551Z,9.20
2019-05-01T23:51:28.711Z,9.20
2019-05-01T23:54:02.502Z,9.20
2019-05-01T23:56:35.106Z,9.20
2019-05-01T23:59:02.206Z,9.30
